KFXE

Fort Lauderdale Executive Airport

Fort Lauderdale, Florida, USA
METAR KFXE 220953Z AUTO 12009KT 10SM FEW022 FEW028 SCT035 26/23 A3001 RMK AO2 SLP165 T02560228
Observed Flight Rules
May-22 @ 09:53 UTC (15 minutes ago) Visual Flight Rules
Wind Visibility Clouds
120° at 9 knots 10 miles
  • Few at 2,200' AGL
  • Few at 2,800' AGL
  • Scattered at 3,500' AGL
Temperatures Readings
Current 26°C / 79°F
Dewpoint 23°C / 73°F
Humidity 84%
Altimeter 30.01" Hg
Pressure 1016.5 hPa
Elevation 6
METAR KFXE 220953Z AUTO 12009KT 10SM FEW022 FEW028 SCT035 26/23 A3001 RMK AO2 SLP165 T02560228
Observed Flight Rules
May-22 @ 09:53 UTC
(15 minutes ago)
VFR
Wind Visibility
120° at 9 knots 10 miles
Clouds
  • Few at 2,200' AGL
  • Few at 2,800' AGL
  • Scattered at 3,500' AGL
Temperature Dewpoint
26°C / 79°F 23°C / 73°F
Humidity Altimeter Pressure
84% 30.01" Hg 1016.5 hPa